sensor_id;sensor_type;location;lat;lon;timestamp;pressure;altitude;pressure_sealevel;temperature;humidity
7309;BME280;3695;53.330;9.876;2024-01-06T00:00:03;99468.47;;;4.20;67.27
7309;BME280;3695;53.330;9.876;2024-01-06T00:02:31;99461.25;;;4.09;67.07
7309;BME280;3695;53.330;9.876;2024-01-06T00:04:58;99466.66;;;4.17;67.35
7309;BME280;3695;53.330;9.876;2024-01-06T00:07:24;99472.06;;;4.25;67.36
7309;BME280;3695;53.330;9.876;2024-01-06T00:09:51;99466.91;;;4.26;66.97
7309;BME280;3695;53.330;9.876;2024-01-06T00:12:19;99478.16;;;4.25;66.91
7309;BME280;3695;53.330;9.876;2024-01-06T00:14:45;99486.00;;;4.27;67.26
7309;BME280;3695;53.330;9.876;2024-01-06T00:17:12;99483.63;;;4.36;67.38
7309;BME280;3695;53.330;9.876;2024-01-06T00:19:39;99477.31;;;4.26;67.14
7309;BME280;3695;53.330;9.876;2024-01-06T00:22:06;99482.03;;;4.39;66.99
7309;BME280;3695;53.330;9.876;2024-01-06T00:24:33;99481.81;;;4.32;67.18
7309;BME280;3695;53.330;9.876;2024-01-06T00:26:59;99475.72;;;4.31;67.25
7309;BME280;3695;53.330;9.876;2024-01-06T00:29:26;99477.72;;;4.40;66.84
7309;BME280;3695;53.330;9.876;2024-01-06T00:31:52;99487.34;;;4.44;67.04
7309;BME280;3695;53.330;9.876;2024-01-06T00:34:22;99491.72;;;4.45;66.36
7309;BME280;3695;53.330;9.876;2024-01-06T00:36:50;99499.41;;;4.42;66.37
7309;BME280;3695;53.330;9.876;2024-01-06T00:39:17;99501.00;;;4.37;66.26
7309;BME280;3695;53.330;9.876;2024-01-06T00:41:44;99498.91;;;4.24;67.19
7309;BME280;3695;53.330;9.876;2024-01-06T00:44:10;99501.06;;;4.08;66.94
7309;BME280;3695;53.330;9.876;2024-01-06T00:46:37;99493.13;;;4.04;67.03
7309;BME280;3695;53.330;9.876;2024-01-06T00:49:03;99484.19;;;3.94;67.08
7309;BME280;3695;53.330;9.876;2024-01-06T00:51:30;99495.22;;;4.16;67.61
7309;BME280;3695;53.330;9.876;2024-01-06T00:53:58;99499.59;;;4.18;67.81
7309;BME280;3695;53.330;9.876;2024-01-06T00:56:24;99497.88;;;4.19;67.12
7309;BME280;3695;53.330;9.876;2024-01-06T00:58:52;99499.41;;;4.42;67.42
7309;BME280;3695;53.330;9.876;2024-01-06T01:01:18;99499.72;;;4.21;67.20
7309;BME280;3695;53.330;9.876;2024-01-06T01:03:45;99497.41;;;4.32;66.80
7309;BME280;3695;53.330;9.876;2024-01-06T01:06:11;99507.88;;;4.35;66.98
7309;BME280;3695;53.330;9.876;2024-01-06T01:08:38;99502.31;;;4.21;67.48
7309;BME280;3695;53.330;9.876;2024-01-06T01:11:06;99512.56;;;4.17;67.05
7309;BME280;3695;53.330;9.876;2024-01-06T01:13:34;99513.66;;;4.25;67.04
7309;BME280;3695;53.330;9.876;2024-01-06T01:16:00;99517.22;;;4.28;67.62
7309;BME280;3695;53.330;9.876;2024-01-06T01:18:28;99526.94;;;4.34;67.36
7309;BME280;3695;53.330;9.876;2024-01-06T01:20:54;99524.81;;;4.21;66.81
7309;BME280;3695;53.330;9.876;2024-01-06T01:23:21;99530.84;;;4.20;67.00
7309;BME280;3695;53.330;9.876;2024-01-06T01:25:47;99530.22;;;4.28;67.31
7309;BME280;3695;53.330;9.876;2024-01-06T01:28:16;99536.53;;;4.36;67.08
7309;BME280;3695;53.330;9.876;2024-01-06T01:30:42;99535.66;;;4.36;67.07
7309;BME280;3695;53.330;9.876;2024-01-06T01:33:09;99541.91;;;4.42;66.46
7309;BME280;3695;53.330;9.876;2024-01-06T01:35:35;99542.69;;;4.38;67.25
7309;BME280;3695;53.330;9.876;2024-01-06T01:38:02;99538.06;;;4.30;66.77
7309;BME280;3695;53.330;9.876;2024-01-06T01:40:28;99548.25;;;4.22;67.21
7309;BME280;3695;53.330;9.876;2024-01-06T01:42:55;99547.09;;;4.13;67.01
7309;BME280;3695;53.330;9.876;2024-01-06T01:45:23;99544.75;;;4.20;67.15
7309;BME280;3695;53.330;9.876;2024-01-06T01:47:49;99549.56;;;4.08;67.34
7309;BME280;3695;53.330;9.876;2024-01-06T01:50:16;99558.38;;;4.13;67.06
7309;BME280;3695;53.330;9.876;2024-01-06T01:52:45;99553.19;;;4.13;66.93
7309;BME280;3695;53.330;9.876;2024-01-06T01:55:12;99549.19;;;4.24;67.33
7309;BME280;3695;53.330;9.876;2024-01-06T01:57:39;99551.00;;;4.27;67.47
7309;BME280;3695;53.330;9.876;2024-01-06T02:00:07;99550.44;;;4.37;66.87
7309;BME280;3695;53.330;9.876;2024-01-06T02:02:35;99549.13;;;4.23;67.22
7309;BME280;3695;53.330;9.876;2024-01-06T02:05:03;99552.72;;;4.26;67.02
7309;BME280;3695;53.330;9.876;2024-01-06T02:07:29;99554.78;;;4.38;66.75
7309;BME280;3695;53.330;9.876;2024-01-06T02:09:56;99562.88;;;4.19;66.48
7309;BME280;3695;53.330;9.876;2024-01-06T02:12:22;99565.53;;;4.20;67.09
7309;BME280;3695;53.330;9.876;2024-01-06T02:14:49;99569.81;;;4.18;66.93
7309;BME280;3695;53.330;9.876;2024-01-06T02:17:15;99573.56;;;4.28;67.25
7309;BME280;3695;53.330;9.876;2024-01-06T02:19:43;99571.63;;;4.21;66.62
7309;BME280;3695;53.330;9.876;2024-01-06T02:22:11;99570.34;;;4.36;66.87
7309;BME280;3695;53.330;9.876;2024-01-06T02:24:38;99582.75;;;4.45;66.91
7309;BME280;3695;53.330;9.876;2024-01-06T02:27:04;99584.22;;;4.37;66.49
7309;BME280;3695;53.330;9.876;2024-01-06T02:29:31;99589.19;;;4.28;66.98
7309;BME280;3695;53.330;9.876;2024-01-06T02:31:57;99580.25;;;4.20;67.02
7309;BME280;3695;53.330;9.876;2024-01-06T02:34:24;99588.81;;;4.16;67.00
7309;BME280;3695;53.330;9.876;2024-01-06T02:36:50;99587.94;;;4.15;67.53
7309;BME280;3695;53.330;9.876;2024-01-06T02:39:18;99587.34;;;4.25;66.99
7309;BME280;3695;53.330;9.876;2024-01-06T02:41:45;99589.00;;;4.22;67.37
7309;BME280;3695;53.330;9.876;2024-01-06T02:44:11;99591.53;;;4.20;66.97
7309;BME280;3695;53.330;9.876;2024-01-06T02:46:39;99593.31;;;4.21;67.59
7309;BME280;3695;53.330;9.876;2024-01-06T02:49:06;99600.88;;;4.14;66.84
7309;BME280;3695;53.330;9.876;2024-01-06T02:51:33;99596.59;;;4.16;67.30
7309;BME280;3695;53.330;9.876;2024-01-06T02:53:59;99601.25;;;4.26;67.54
7309;BME280;3695;53.330;9.876;2024-01-06T02:56:27;99605.25;;;4.15;66.98
7309;BME280;3695;53.330;9.876;2024-01-06T02:58:54;99596.44;;;4.09;67.43
7309;BME280;3695;53.330;9.876;2024-01-06T03:01:20;99598.00;;;3.78;67.51
7309;BME280;3695;53.330;9.876;2024-01-06T03:03:47;99601.50;;;4.06;67.77
7309;BME280;3695;53.330;9.876;2024-01-06T03:06:13;99610.97;;;4.04;67.14
7309;BME280;3695;53.330;9.876;2024-01-06T03:08:40;99609.41;;;4.09;67.59
7309;BME280;3695;53.330;9.876;2024-01-06T03:11:06;99611.91;;;4.06;67.46
7309;BME280;3695;53.330;9.876;2024-01-06T03:13:34;99611.78;;;4.02;67.04
7309;BME280;3695;53.330;9.876;2024-01-06T03:16:03;99616.03;;;4.00;67.66
7309;BME280;3695;53.330;9.876;2024-01-06T03:18:30;99615.59;;;4.13;67.15
7309;BME280;3695;53.330;9.876;2024-01-06T03:20:57;99621.94;;;4.23;67.08
7309;BME280;3695;53.330;9.876;2024-01-06T03:23:23;99612.66;;;4.02;67.13
7309;BME280;3695;53.330;9.876;2024-01-06T03:25:50;99616.16;;;4.04;67.23
7309;BME280;3695;53.330;9.876;2024-01-06T03:28:16;99621.03;;;3.94;66.92
7309;BME280;3695;53.330;9.876;2024-01-06T03:30:44;99611.91;;;4.06;67.07
7309;BME280;3695;53.330;9.876;2024-01-06T03:33:11;99630.03;;;4.03;67.40
7309;BME280;3695;53.330;9.876;2024-01-06T03:35:38;99634.53;;;3.82;66.95
7309;BME280;3695;53.330;9.876;2024-01-06T03:38:04;99641.91;;;4.24;67.40
7309;BME280;3695;53.330;9.876;2024-01-06T03:40:31;99635.56;;;4.14;66.86
7309;BME280;3695;53.330;9.876;2024-01-06T03:42:57;99643.28;;;4.13;66.61
7309;BME280;3695;53.330;9.876;2024-01-06T03:45:25;99648.44;;;4.11;66.72
7309;BME280;3695;53.330;9.876;2024-01-06T03:47:53;99648.63;;;4.17;67.20
7309;BME280;3695;53.330;9.876;2024-01-06T03:50:19;99658.38;;;3.96;67.30
7309;BME280;3695;53.330;9.876;2024-01-06T03:52:46;99652.66;;;3.81;67.31
7309;BME280;3695;53.330;9.876;2024-01-06T03:55:14;99661.09;;;4.00;67.28
7309;BME280;3695;53.330;9.876;2024-01-06T03:57:41;99656.69;;;3.98;67.45
7309;BME280;3695;53.330;9.876;2024-01-06T04:00:08;99657.03;;;4.08;67.28
7309;BME280;3695;53.330;9.876;2024-01-06T04:02:35;99666.25;;;3.99;67.14
7309;BME280;3695;53.330;9.876;2024-01-06T04:05:03;99658.13;;;4.15;67.13
7309;BME280;3695;53.330;9.876;2024-01-06T04:07:31;99663.69;;;4.00;66.95
7309;BME280;3695;53.330;9.876;2024-01-06T04:09:57;99661.09;;;4.00;66.44
7309;BME280;3695;53.330;9.876;2024-01-06T04:12:24;99672.97;;;3.92;66.66
7309;BME280;3695;53.330;9.876;2024-01-06T04:14:50;99666.44;;;4.05;66.77
7309;BME280;3695;53.330;9.876;2024-01-06T04:17:17;99662.25;;;4.10;66.77
7309;BME280;3695;53.330;9.876;2024-01-06T04:19:43;99683.34;;;3.92;66.44
7309;BME280;3695;53.330;9.876;2024-01-06T04:22:11;99675.66;;;3.95;66.96
7309;BME280;3695;53.330;9.876;2024-01-06T04:24:38;99678.63;;;3.81;66.57
7309;BME280;3695;53.330;9.876;2024-01-06T04:27:06;99679.09;;;3.94;66.70
7309;BME280;3695;53.330;9.876;2024-01-06T04:29:32;99679.84;;;3.90;66.64
7309;BME280;3695;53.330;9.876;2024-01-06T04:31:59;99685.66;;;3.83;66.90
7309;BME280;3695;53.330;9.876;2024-01-06T04:34:25;99684.16;;;3.90;66.82
7309;BME280;3695;53.330;9.876;2024-01-06T04:36:52;99691.88;;;3.88;66.62
7309;BME280;3695;53.330;9.876;2024-01-06T04:39:20;99692.81;;;4.16;66.52
7309;BME280;3695;53.330;9.876;2024-01-06T04:41:46;99701.59;;;3.94;66.71
7309;BME280;3695;53.330;9.876;2024-01-06T04:44:13;99699.16;;;3.98;66.35
7309;BME280;3695;53.330;9.876;2024-01-06T04:46:39;99706.50;;;3.85;66.75
7309;BME280;3695;53.330;9.876;2024-01-06T04:49:06;99701.78;;;3.73;66.77
7309;BME280;3695;53.330;9.876;2024-01-06T04:51:32;99706.38;;;3.82;66.68
7309;BME280;3695;53.330;9.876;2024-01-06T04:53:59;99714.84;;;3.51;67.18
7309;BME280;3695;53.330;9.876;2024-01-06T04:56:27;99712.84;;;3.67;67.23
7309;BME280;3695;53.330;9.876;2024-01-06T04:58:53;99717.94;;;3.64;67.38
7309;BME280;3695;53.330;9.876;2024-01-06T05:01:20;99714.25;;;3.83;67.14
7309;BME280;3695;53.330;9.876;2024-01-06T05:03:46;99724.09;;;3.68;66.85
7309;BME280;3695;53.330;9.876;2024-01-06T05:06:13;99719.31;;;3.79;67.18
7309;BME280;3695;53.330;9.876;2024-01-06T05:08:39;99721.56;;;3.69;66.82
7309;BME280;3695;53.330;9.876;2024-01-06T05:11:10;99733.00;;;4.00;66.51
7309;BME280;3695;53.330;9.876;2024-01-06T05:13:38;99718.13;;;3.96;66.06
7309;BME280;3695;53.330;9.876;2024-01-06T05:16:05;99730.81;;;3.87;66.28
7309;BME280;3695;53.330;9.876;2024-01-06T05:18:32;99738.72;;;3.90;66.45
7309;BME280;3695;53.330;9.876;2024-01-06T05:20:58;99736.19;;;3.91;66.59
7309;BME280;3695;53.330;9.876;2024-01-06T05:23:25;99752.69;;;3.93;66.36
7309;BME280;3695;53.330;9.876;2024-01-06T05:25:51;99744.41;;;3.78;66.67
7309;BME280;3695;53.330;9.876;2024-01-06T05:28:18;99743.81;;;3.87;66.69
7309;BME280;3695;53.330;9.876;2024-01-06T05:30:46;99748.69;;;3.78;66.65
7309;BME280;3695;53.330;9.876;2024-01-06T05:33:13;99749.84;;;3.60;66.91
7309;BME280;3695;53.330;9.876;2024-01-06T05:35:40;99754.84;;;3.56;66.75
7309;BME280;3695;53.330;9.876;2024-01-06T05:38:07;99754.66;;;3.75;67.09
7309;BME280;3695;53.330;9.876;2024-01-06T05:40:33;99758.97;;;3.75;66.86
7309;BME280;3695;53.330;9.876;2024-01-06T05:43:00;99766.09;;;3.80;66.87
7309;BME280;3695;53.330;9.876;2024-01-06T05:45:26;99776.69;;;3.86;66.84
7309;BME280;3695;53.330;9.876;2024-01-06T05:47:54;99778.25;;;3.81;66.46
7309;BME280;3695;53.330;9.876;2024-01-06T05:50:21;99781.69;;;3.80;66.40
7309;BME280;3695;53.330;9.876;2024-01-06T05:52:47;99789.66;;;3.85;66.94
7309;BME280;3695;53.330;9.876;2024-01-06T05:55:14;99791.44;;;3.86;66.56
7309;BME280;3695;53.330;9.876;2024-01-06T05:57:41;99794.75;;;3.82;66.70
7309;BME280;3695;53.330;9.876;2024-01-06T06:00:08;99792.63;;;3.95;66.43
7309;BME280;3695;53.330;9.876;2024-01-06T06:02:36;99810.19;;;3.77;66.09
7309;BME280;3695;53.330;9.876;2024-01-06T06:05:04;99805.66;;;3.72;66.37
7309;BME280;3695;53.330;9.876;2024-01-06T06:07:31;99817.47;;;3.63;66.37
7309;BME280;3695;53.330;9.876;2024-01-06T06:09:57;99815.81;;;3.65;66.40
7309;BME280;3695;53.330;9.876;2024-01-06T06:12:24;99825.72;;;3.76;66.73
7309;BME280;3695;53.330;9.876;2024-01-06T06:14:50;99829.41;;;3.82;66.76
7309;BME280;3695;53.330;9.876;2024-01-06T06:17:17;99837.28;;;3.60;66.59
7309;BME280;3695;53.330;9.876;2024-01-06T06:19:43;99835.59;;;3.62;66.77
7309;BME280;3695;53.330;9.876;2024-01-06T06:22:11;99842.91;;;3.72;67.04
7309;BME280;3695;53.330;9.876;2024-01-06T06:24:38;99841.88;;;3.67;66.41
7309;BME280;3695;53.330;9.876;2024-01-06T06:27:04;99850.69;;;3.72;66.58
7309;BME280;3695;53.330;9.876;2024-01-06T06:29:31;99847.38;;;3.76;66.86
7309;BME280;3695;53.330;9.876;2024-01-06T06:31:57;99855.09;;;3.75;66.60
7309;BME280;3695;53.330;9.876;2024-01-06T06:34:24;99854.13;;;3.71;66.85
7309;BME280;3695;53.330;9.876;2024-01-06T06:36:51;99855.00;;;3.72;66.61
7309;BME280;3695;53.330;9.876;2024-01-06T06:39:19;99866.63;;;3.81;66.60
7309;BME280;3695;53.330;9.876;2024-01-06T06:41:45;99872.84;;;3.62;66.66
7309;BME280;3695;53.330;9.876;2024-01-06T06:44:12;99866.72;;;3.60;66.56
7309;BME280;3695;53.330;9.876;2024-01-06T06:46:39;99867.50;;;3.58;66.80
7309;BME280;3695;53.330;9.876;2024-01-06T06:49:06;99882.63;;;3.69;66.21
7309;BME280;3695;53.330;9.876;2024-01-06T06:51:32;99884.63;;;3.77;66.55
7309;BME280;3695;53.330;9.876;2024-01-06T06:53:59;99890.28;;;3.65;66.63
7309;BME280;3695;53.330;9.876;2024-01-06T06:56:27;99892.97;;;3.68;66.50
7309;BME280;3695;53.330;9.876;2024-01-06T06:58:53;99893.81;;;3.67;66.88
7309;BME280;3695;53.330;9.876;2024-01-06T07:01:20;99889.16;;;3.58;66.71
7309;BME280;3695;53.330;9.876;2024-01-06T07:03:46;99893.38;;;3.55;66.52
7309;BME280;3695;53.330;9.876;2024-01-06T07:06:13;99899.22;;;3.49;66.92
7309;BME280;3695;53.330;9.876;2024-01-06T07:08:40;99907.94;;;3.74;66.48
7309;BME280;3695;53.330;9.876;2024-01-06T07:11:08;99911.78;;;3.61;66.59
7309;BME280;3695;53.330;9.876;2024-01-06T07:13:37;99916.13;;;3.62;66.20
7309;BME280;3695;53.330;9.876;2024-01-06T07:16:05;99919.66;;;3.64;66.59
7309;BME280;3695;53.330;9.876;2024-01-06T07:18:32;99920.19;;;3.78;66.43
7309;BME280;3695;53.330;9.876;2024-01-06T07:20:59;99919.97;;;3.72;66.33
7309;BME280;3695;53.330;9.876;2024-01-06T07:23:25;99930.38;;;3.72;65.98
7309;BME280;3695;53.330;9.876;2024-01-06T07:25:52;99939.34;;;3.57;66.24
7309;BME280;3695;53.330;9.876;2024-01-06T07:28:18;99928.97;;;3.81;66.08
7309;BME280;3695;53.330;9.876;2024-01-06T07:30:47;99940.47;;;3.64;65.85
7309;BME280;3695;53.330;9.876;2024-01-06T07:33:13;99946.91;;;3.74;65.86
7309;BME280;3695;53.330;9.876;2024-01-06T07:35:40;99940.47;;;3.64;65.89
7309;BME280;3695;53.330;9.876;2024-01-06T07:38:08;99943.66;;;3.79;65.83
7309;BME280;3695;53.330;9.876;2024-01-06T07:40:35;99954.50;;;3.69;66.16
7309;BME280;3695;53.330;9.876;2024-01-06T07:43:02;99962.88;;;3.62;65.97
7309;BME280;3695;53.330;9.876;2024-01-06T07:45:29;99956.59;;;3.55;66.28
7309;BME280;3695;53.330;9.876;2024-01-06T07:47:58;99966.19;;;3.58;66.03
7309;BME280;3695;53.330;9.876;2024-01-06T07:50:25;99960.63;;;3.26;66.23
7309;BME280;3695;53.330;9.876;2024-01-06T07:52:51;99968.72;;;3.56;66.21
7309;BME280;3695;53.330;9.876;2024-01-06T07:55:18;99977.06;;;3.70;66.69
7309;BME280;3695;53.330;9.876;2024-01-06T07:57:45;99980.66;;;3.51;66.30
7309;BME280;3695;53.330;9.876;2024-01-06T08:00:12;99984.47;;;3.39;66.66
7309;BME280;3695;53.330;9.876;2024-01-06T08:02:40;99983.84;;;3.44;66.77
7309;BME280;3695;53.330;9.876;2024-01-06T08:05:08;99980.19;;;3.39;66.37
7309;BME280;3695;53.330;9.876;2024-01-06T08:07:35;99994.19;;;3.22;66.60
7309;BME280;3695;53.330;9.876;2024-01-06T08:10:01;99997.19;;;3.10;66.69
7309;BME280;3695;53.330;9.876;2024-01-06T08:12:30;100004.75;;;3.47;66.58
7309;BME280;3695;53.330;9.876;2024-01-06T08:14:56;100010.19;;;3.53;66.46
7309;BME280;3695;53.330;9.876;2024-01-06T08:17:23;100013.34;;;3.67;66.02
7309;BME280;3695;53.330;9.876;2024-01-06T08:19:49;100022.00;;;3.67;65.77
7309;BME280;3695;53.330;9.876;2024-01-06T08:22:17;100023.75;;;3.68;65.87
7309;BME280;3695;53.330;9.876;2024-01-06T08:24:44;100024.88;;;3.53;66.10
7309;BME280;3695;53.330;9.876;2024-01-06T08:27:10;100033.50;;;3.52;66.00
7309;BME280;3695;53.330;9.876;2024-01-06T08:29:37;100034.38;;;3.52;66.07
7309;BME280;3695;53.330;9.876;2024-01-06T08:32:04;100050.47;;;3.64;65.94
7309;BME280;3695;53.330;9.876;2024-01-06T08:34:31;100052.63;;;3.54;65.99
7309;BME280;3695;53.330;9.876;2024-01-06T08:36:57;100050.09;;;3.35;66.09
7309;BME280;3695;53.330;9.876;2024-01-06T08:39:25;100055.59;;;3.63;65.91
7309;BME280;3695;53.330;9.876;2024-01-06T08:41:52;100062.06;;;3.73;65.90
7309;BME280;3695;53.330;9.876;2024-01-06T08:44:18;100069.72;;;3.69;65.88
7309;BME280;3695;53.330;9.876;2024-01-06T08:46:45;100071.91;;;3.81;65.80
7309;BME280;3695;53.330;9.876;2024-01-06T08:49:11;100068.13;;;3.73;65.04
7309;BME280;3695;53.330;9.876;2024-01-06T08:51:38;100073.13;;;3.68;65.31
7309;BME280;3695;53.330;9.876;2024-01-06T08:54:04;100077.31;;;3.65;65.09
7309;BME280;3695;53.330;9.876;2024-01-06T08:56:33;100080.00;;;3.66;65.37
7309;BME280;3695;53.330;9.876;2024-01-06T08:59:00;100076.81;;;3.53;65.59
7309;BME280;3695;53.330;9.876;2024-01-06T09:01:26;100085.06;;;3.63;65.28
7309;BME280;3695;53.330;9.876;2024-01-06T09:03:53;100087.34;;;3.35;65.52
7309;BME280;3695;53.330;9.876;2024-01-06T09:06:19;100087.06;;;3.50;65.71
7309;BME280;3695;53.330;9.876;2024-01-06T09:08:46;100092.91;;;3.65;65.49
7309;BME280;3695;53.330;9.876;2024-01-06T09:11:13;100088.28;;;3.58;65.23
7309;BME280;3695;53.330;9.876;2024-01-06T09:13:41;100091.56;;;3.75;65.24
7309;BME280;3695;53.330;9.876;2024-01-06T09:16:07;100104.38;;;3.70;65.26
7309;BME280;3695;53.330;9.876;2024-01-06T09:18:34;100110.41;;;3.27;65.96
7309;BME280;3695;53.330;9.876;2024-01-06T09:21:00;100112.06;;;3.67;65.71
7309;BME280;3695;53.330;9.876;2024-01-06T09:23:28;100124.19;;;3.68;65.47
7309;BME280;3695;53.330;9.876;2024-01-06T09:25:55;100125.72;;;3.63;65.18
7309;BME280;3695;53.330;9.876;2024-01-06T09:28:21;100122.44;;;3.67;65.39
7309;BME280;3695;53.330;9.876;2024-01-06T09:30:49;100123.69;;;3.56;65.17
7309;BME280;3695;53.330;9.876;2024-01-06T09:33:17;100133.78;;;3.69;65.36
7309;BME280;3695;53.330;9.876;2024-01-06T09:35:44;100128.16;;;3.79;65.23
7309;BME280;3695;53.330;9.876;2024-01-06T09:38:10;100132.88;;;3.68;65.23
7309;BME280;3695;53.330;9.876;2024-01-06T09:40:41;100132.84;;;3.67;65.35
7309;BME280;3695;53.330;9.876;2024-01-06T09:43:08;100143.38;;;3.49;65.32
7309;BME280;3695;53.330;9.876;2024-01-06T09:45:35;100142.59;;;3.52;65.82
7309;BME280;3695;53.330;9.876;2024-01-06T09:48:10;100145.19;;;3.52;65.57
7309;BME280;3695;53.330;9.876;2024-01-06T09:50:37;100147.03;;;3.54;65.75
7309;BME280;3695;53.330;9.876;2024-01-06T09:53:04;100152.97;;;3.52;65.62
7309;BME280;3695;53.330;9.876;2024-01-06T09:55:32;100158.69;;;3.64;65.65
7309;BME280;3695;53.330;9.876;2024-01-06T09:57:58;100148.03;;;3.58;65.59
7309;BME280;3695;53.330;9.876;2024-01-06T10:00:25;100153.78;;;3.51;65.58
7309;BME280;3695;53.330;9.876;2024-01-06T10:02:52;100163.13;;;3.66;66.17
7309;BME280;3695;53.330;9.876;2024-01-06T10:05:21;100160.97;;;3.77;65.70
7309;BME280;3695;53.330;9.876;2024-01-06T10:07:48;100170.59;;;3.59;65.69
7309;BME280;3695;53.330;9.876;2024-01-06T10:10:15;100170.94;;;3.26;66.02
7309;BME280;3695;53.330;9.876;2024-01-06T10:12:42;100174.09;;;3.59;66.21
7309;BME280;3695;53.330;9.876;2024-01-06T10:15:10;100173.97;;;3.77;65.53
7309;BME280;3695;53.330;9.876;2024-01-06T10:17:37;100176.81;;;3.83;65.98
7309;BME280;3695;53.330;9.876;2024-01-06T10:20:07;100174.47;;;3.89;65.24
7309;BME280;3695;53.330;9.876;2024-01-06T10:22:36;100185.84;;;3.93;65.32
7309;BME280;3695;53.330;9.876;2024-01-06T10:25:05;100180.72;;;3.53;65.01
7309;BME280;3695;53.330;9.876;2024-01-06T10:27:33;100191.97;;;3.73;65.30
7309;BME280;3695;53.330;9.876;2024-01-06T10:30:00;100198.72;;;3.69;65.62
7309;BME280;3695;53.330;9.876;2024-01-06T10:32:27;100195.97;;;3.85;65.63
7309;BME280;3695;53.330;9.876;2024-01-06T10:34:55;100200.69;;;3.75;65.25
7309;BME280;3695;53.330;9.876;2024-01-06T10:37:23;100201.63;;;3.56;65.56
7309;BME280;3695;53.330;9.876;2024-01-06T10:40:05;100199.53;;;3.68;65.47
7309;BME280;3695;53.330;9.876;2024-01-06T10:42:32;100207.16;;;3.63;65.43
7309;BME280;3695;53.330;9.876;2024-01-06T10:44:59;100204.28;;;3.57;65.21
7309;BME280;3695;53.330;9.876;2024-01-06T10:47:27;100214.66;;;3.77;65.50
7309;BME280;3695;53.330;9.876;2024-01-06T10:49:57;100206.28;;;3.44;65.53
7309;BME280;3695;53.330;9.876;2024-01-06T10:52:26;100212.38;;;3.84;65.80
7309;BME280;3695;53.330;9.876;2024-01-06T10:54:53;100219.88;;;3.97;65.50
7309;BME280;3695;53.330;9.876;2024-01-06T10:57:22;100219.91;;;3.99;65.03
7309;BME280;3695;53.330;9.876;2024-01-06T10:59:50;100228.78;;;3.83;65.38
7309;BME280;3695;53.330;9.876;2024-01-06T11:02:17;100230.41;;;3.81;65.26
7309;BME280;3695;53.330;9.876;2024-01-06T11:04:45;100230.38;;;3.80;64.76
7309;BME280;3695;53.330;9.876;2024-01-06T11:07:13;100228.63;;;3.59;65.02
7309;BME280;3695;53.330;9.876;2024-01-06T11:09:45;100226.38;;;3.67;65.14
7309;BME280;3695;53.330;9.876;2024-01-06T11:12:13;100226.84;;;3.58;65.19
7309;BME280;3695;53.330;9.876;2024-01-06T11:14:43;100222.88;;;3.66;65.10
7309;BME280;3695;53.330;9.876;2024-01-06T11:17:11;100217.09;;;3.53;65.26
7309;BME280;3695;53.330;9.876;2024-01-06T11:19:44;100232.78;;;3.56;65.53
7309;BME280;3695;53.330;9.876;2024-01-06T11:22:26;100223.06;;;3.71;65.68
7309;BME280;3695;53.330;9.876;2024-01-06T11:24:54;100227.00;;;3.61;65.50
7309;BME280;3695;53.330;9.876;2024-01-06T11:27:24;100225.16;;;3.59;64.96
7309;BME280;3695;53.330;9.876;2024-01-06T11:29:53;100230.53;;;3.43;65.00
7309;BME280;3695;53.330;9.876;2024-01-06T11:32:25;100228.47;;;3.36;64.93
7309;BME280;3695;53.330;9.876;2024-01-06T11:34:53;100227.81;;;3.81;65.12
7309;BME280;3695;53.330;9.876;2024-01-06T11:37:25;100236.31;;;3.77;64.73
7309;BME280;3695;53.330;9.876;2024-01-06T11:39:52;100231.31;;;3.82;64.90
7309;BME280;3695;53.330;9.876;2024-01-06T11:42:19;100228.22;;;3.90;64.79
7309;BME280;3695;53.330;9.876;2024-01-06T11:44:50;100235.88;;;3.87;64.60
7309;BME280;3695;53.330;9.876;2024-01-06T11:47:18;100232.22;;;4.03;64.58
7309;BME280;3695;53.330;9.876;2024-01-06T11:49:53;100237.19;;;4.40;64.83
7309;BME280;3695;53.330;9.876;2024-01-06T11:52:21;100231.25;;;4.01;64.76
7309;BME280;3695;53.330;9.876;2024-01-06T11:54:47;100231.13;;;4.19;64.44
7309;BME280;3695;53.330;9.876;2024-01-06T11:57:15;100232.88;;;3.97;64.48
7309;BME280;3695;53.330;9.876;2024-01-06T11:59:41;100235.50;;;3.78;64.15
7309;BME280;3695;53.330;9.876;2024-01-06T12:02:11;100226.75;;;3.76;64.75
7309;BME280;3695;53.330;9.876;2024-01-06T12:04:39;100229.88;;;3.67;64.32
7309;BME280;3695;53.330;9.876;2024-01-06T12:07:07;100235.09;;;3.69;64.65
7309;BME280;3695;53.330;9.876;2024-01-06T12:09:34;100238.16;;;3.59;65.01
7309;BME280;3695;53.330;9.876;2024-01-06T12:12:01;100236.81;;;3.28;65.26
7309;BME280;3695;53.330;9.876;2024-01-06T12:14:28;100242.63;;;3.42;65.27
7309;BME280;3695;53.330;9.876;2024-01-06T12:16:55;100242.81;;;3.47;65.39
7309;BME280;3695;53.330;9.876;2024-01-06T12:19:27;100231.06;;;3.55;65.29
7309;BME280;3695;53.330;9.876;2024-01-06T12:21:56;100235.13;;;3.50;65.26
7309;BME280;3695;53.330;9.876;2024-01-06T12:24:22;100242.97;;;3.71;64.98
7309;BME280;3695;53.330;9.876;2024-01-06T12:26:49;100244.88;;;3.75;65.08
7309;BME280;3695;53.330;9.876;2024-01-06T12:29:16;100241.28;;;3.52;65.30
7309;BME280;3695;53.330;9.876;2024-01-06T12:31:44;100238.16;;;3.59;65.06
7309;BME280;3695;53.330;9.876;2024-01-06T12:34:10;100241.72;;;3.82;65.00
7309;BME280;3695;53.330;9.876;2024-01-06T12:36:38;100239.41;;;3.68;64.75
7309;BME280;3695;53.330;9.876;2024-01-06T12:39:10;100247.13;;;3.46;64.69
7309;BME280;3695;53.330;9.876;2024-01-06T12:41:38;100252.66;;;3.54;64.73
7309;BME280;3695;53.330;9.876;2024-01-06T12:44:05;100259.47;;;3.52;65.03
7309;BME280;3695;53.330;9.876;2024-01-06T12:46:32;100253.72;;;3.59;65.39
7309;BME280;3695;53.330;9.876;2024-01-06T12:48:59;100262.38;;;3.79;65.02
7309;BME280;3695;53.330;9.876;2024-01-06T12:51:25;100254.09;;;3.68;64.71
7309;BME280;3695;53.330;9.876;2024-01-06T12:53:52;100258.72;;;3.54;64.71
7309;BME280;3695;53.330;9.876;2024-01-06T12:56:20;100264.41;;;3.26;65.28
7309;BME280;3695;53.330;9.876;2024-01-06T12:58:46;100254.56;;;3.39;65.26
7309;BME280;3695;53.330;9.876;2024-01-06T13:01:13;100261.00;;;3.27;65.38
7309;BME280;3695;53.330;9.876;2024-01-06T13:03:39;100269.59;;;3.65;65.71
7309;BME280;3695;53.330;9.876;2024-01-06T13:06:06;100273.25;;;3.70;65.44
7309;BME280;3695;53.330;9.876;2024-01-06T13:08:33;100277.00;;;3.37;65.36
7309;BME280;3695;53.330;9.876;2024-01-06T13:11:00;100274.72;;;3.44;65.73
7309;BME280;3695;53.330;9.876;2024-01-06T13:13:27;100270.63;;;3.30;65.72
7309;BME280;3695;53.330;9.876;2024-01-06T13:15:55;100280.19;;;3.50;66.23
7309;BME280;3695;53.330;9.876;2024-01-06T13:18:21;100283.91;;;3.55;66.15
7309;BME280;3695;53.330;9.876;2024-01-06T13:20:48;100285.78;;;3.59;66.11
7309;BME280;3695;53.330;9.876;2024-01-06T13:23:15;100293.88;;;3.46;66.03
7309;BME280;3695;53.330;9.876;2024-01-06T13:25:43;100295.28;;;3.40;65.85
7309;BME280;3695;53.330;9.876;2024-01-06T13:28:09;100296.25;;;3.42;65.73